sensor_id;sensor_type;location;lat;lon;timestamp;P1;durP1;ratioP1;P2;durP2;ratioP2
10201;SDS011;5143;42.584;23.164;2022-09-09T00:01:19;8.23;;;7.43;;
10201;SDS011;5143;42.584;23.164;2022-09-09T00:03:57;15.07;;;8.03;;
10201;SDS011;5143;42.584;23.164;2022-09-09T00:06:30;9.97;;;8.43;;
10201;SDS011;5143;42.584;23.164;2022-09-09T00:09:03;10.03;;;7.70;;
10201;SDS011;5143;42.584;23.164;2022-09-09T00:11:36;10.03;;;7.47;;
10201;SDS011;5143;42.584;23.164;2022-09-09T00:14:09;8.77;;;7.87;;
10201;SDS011;5143;42.584;23.164;2022-09-09T00:16:41;9.07;;;7.80;;
10201;SDS011;5143;42.584;23.164;2022-09-09T00:19:15;10.63;;;8.27;;
10201;SDS011;5143;42.584;23.164;2022-09-09T00:21:49;8.03;;;7.20;;
10201;SDS011;5143;42.584;23.164;2022-09-09T00:24:26;11.73;;;7.27;;
10201;SDS011;5143;42.584;23.164;2022-09-09T00:27:00;8.80;;;6.90;;
10201;SDS011;5143;42.584;23.164;2022-09-09T00:29:33;7.50;;;6.67;;
10201;SDS011;5143;42.584;23.164;2022-09-09T00:32:11;6.90;;;6.20;;
10201;SDS011;5143;42.584;23.164;2022-09-09T00:34:46;6.10;;;5.50;;
10201;SDS011;5143;42.584;23.164;2022-09-09T00:37:15;8.70;;;5.87;;
10201;SDS011;5143;42.584;23.164;2022-09-09T00:39:46;7.03;;;5.10;;
10201;SDS011;5143;42.584;23.164;2022-09-09T00:42:15;7.50;;;5.13;;
10201;SDS011;5143;42.584;23.164;2022-09-09T00:44:51;8.40;;;4.90;;
10201;SDS011;5143;42.584;23.164;2022-09-09T00:47:43;8.03;;;4.80;;
10201;SDS011;5143;42.584;23.164;2022-09-09T00:50:17;6.13;;;5.50;;
10201;SDS011;5143;42.584;23.164;2022-09-09T00:53:00;7.17;;;5.17;;
10201;SDS011;5143;42.584;23.164;2022-09-09T00:55:40;6.00;;;5.30;;
10201;SDS011;5143;42.584;23.164;2022-09-09T00:58:15;7.63;;;5.60;;
10201;SDS011;5143;42.584;23.164;2022-09-09T01:00:43;5.97;;;5.37;;
10201;SDS011;5143;42.584;23.164;2022-09-09T01:03:25;5.30;;;4.77;;
10201;SDS011;5143;42.584;23.164;2022-09-09T01:06:12;7.50;;;5.03;;
10201;SDS011;5143;42.584;23.164;2022-09-09T01:11:33;9.37;;;5.47;;
10201;SDS011;5143;42.584;23.164;2022-09-09T01:14:11;7.07;;;5.50;;
10201;SDS011;5143;42.584;23.164;2022-09-09T01:16:58;6.03;;;5.50;;
10201;SDS011;5143;42.584;23.164;2022-09-09T01:19:33;8.43;;;5.50;;
10201;SDS011;5143;42.584;23.164;2022-09-09T01:22:13;8.00;;;5.70;;
10201;SDS011;5143;42.584;23.164;2022-09-09T01:24:50;6.63;;;5.00;;
10201;SDS011;5143;42.584;23.164;2022-09-09T01:27:33;7.83;;;5.40;;
10201;SDS011;5143;42.584;23.164;2022-09-09T01:30:02;6.23;;;5.63;;
10201;SDS011;5143;42.584;23.164;2022-09-09T01:32:37;6.73;;;5.50;;
10201;SDS011;5143;42.584;23.164;2022-09-09T01:35:07;9.57;;;5.83;;
10201;SDS011;5143;42.584;23.164;2022-09-09T01:37:39;8.63;;;5.73;;
10201;SDS011;5143;42.584;23.164;2022-09-09T01:40:06;7.73;;;5.57;;
10201;SDS011;5143;42.584;23.164;2022-09-09T01:42:35;6.23;;;5.63;;
10201;SDS011;5143;42.584;23.164;2022-09-09T01:45:02;7.83;;;5.93;;
10201;SDS011;5143;42.584;23.164;2022-09-09T01:47:30;6.90;;;6.03;;
10201;SDS011;5143;42.584;23.164;2022-09-09T01:49:57;7.87;;;6.03;;
10201;SDS011;5143;42.584;23.164;2022-09-09T01:52:24;10.33;;;6.07;;
10201;SDS011;5143;42.584;23.164;2022-09-09T01:54:51;9.20;;;5.73;;
10201;SDS011;5143;42.584;23.164;2022-09-09T01:57:19;7.57;;;5.83;;
10201;SDS011;5143;42.584;23.164;2022-09-09T01:59:53;9.60;;;5.73;;
10201;SDS011;5143;42.584;23.164;2022-09-09T02:02:30;7.33;;;5.50;;
10201;SDS011;5143;42.584;23.164;2022-09-09T02:05:01;9.10;;;5.90;;
10201;SDS011;5143;42.584;23.164;2022-09-09T02:07:38;8.13;;;5.80;;
10201;SDS011;5143;42.584;23.164;2022-09-09T02:10:09;8.60;;;6.30;;
10201;SDS011;5143;42.584;23.164;2022-09-09T02:12:39;6.97;;;6.27;;
10201;SDS011;5143;42.584;23.164;2022-09-09T02:15:13;11.23;;;6.63;;
10201;SDS011;5143;42.584;23.164;2022-09-09T02:17:44;7.20;;;6.50;;
10201;SDS011;5143;42.584;23.164;2022-09-09T02:20:13;7.83;;;6.93;;
10201;SDS011;5143;42.584;23.164;2022-09-09T02:22:42;7.00;;;6.40;;
10201;SDS011;5143;42.584;23.164;2022-09-09T02:25:12;7.87;;;6.90;;
10201;SDS011;5143;42.584;23.164;2022-09-09T02:27:42;8.13;;;6.63;;
10201;SDS011;5143;42.584;23.164;2022-09-09T02:30:13;7.80;;;6.80;;
10201;SDS011;5143;42.584;23.164;2022-09-09T02:32:41;7.93;;;7.23;;
10201;SDS011;5143;42.584;23.164;2022-09-09T02:35:10;11.43;;;7.13;;
10201;SDS011;5143;42.584;23.164;2022-09-09T02:37:40;12.63;;;7.80;;
10201;SDS011;5143;42.584;23.164;2022-09-09T02:40:11;9.57;;;7.67;;
10201;SDS011;5143;42.584;23.164;2022-09-09T02:42:40;10.50;;;8.00;;
10201;SDS011;5143;42.584;23.164;2022-09-09T02:45:08;12.03;;;8.73;;
10201;SDS011;5143;42.584;23.164;2022-09-09T02:47:38;9.27;;;8.33;;
10201;SDS011;5143;42.584;23.164;2022-09-09T02:50:15;11.23;;;7.77;;
10201;SDS011;5143;42.584;23.164;2022-09-09T02:52:49;8.83;;;7.93;;
10201;SDS011;5143;42.584;23.164;2022-09-09T02:55:29;10.53;;;8.33;;
10201;SDS011;5143;42.584;23.164;2022-09-09T02:58:04;14.23;;;8.50;;
10201;SDS011;5143;42.584;23.164;2022-09-09T03:00:34;17.43;;;11.17;;
10201;SDS011;5143;42.584;23.164;2022-09-09T03:03:03;17.33;;;12.37;;
10201;SDS011;5143;42.584;23.164;2022-09-09T03:05:30;22.77;;;13.20;;
10201;SDS011;5143;42.584;23.164;2022-09-09T03:07:58;19.37;;;13.27;;
10201;SDS011;5143;42.584;23.164;2022-09-09T03:10:25;21.17;;;13.50;;
10201;SDS011;5143;42.584;23.164;2022-09-09T03:12:51;21.00;;;12.33;;
10201;SDS011;5143;42.584;23.164;2022-09-09T03:15:18;18.70;;;12.03;;
10201;SDS011;5143;42.584;23.164;2022-09-09T03:17:45;19.60;;;13.07;;
10201;SDS011;5143;42.584;23.164;2022-09-09T03:20:13;21.40;;;13.93;;
10201;SDS011;5143;42.584;23.164;2022-09-09T03:22:40;21.27;;;13.13;;
10201;SDS011;5143;42.584;23.164;2022-09-09T03:25:08;22.43;;;12.57;;
10201;SDS011;5143;42.584;23.164;2022-09-09T03:27:35;12.13;;;9.47;;
10201;SDS011;5143;42.584;23.164;2022-09-09T03:30:02;13.10;;;9.37;;
10201;SDS011;5143;42.584;23.164;2022-09-09T03:32:30;15.57;;;9.77;;
10201;SDS011;5143;42.584;23.164;2022-09-09T03:34:57;12.17;;;9.67;;
10201;SDS011;5143;42.584;23.164;2022-09-09T03:37:25;13.53;;;8.57;;
10201;SDS011;5143;42.584;23.164;2022-09-09T03:39:52;11.13;;;9.00;;
10201;SDS011;5143;42.584;23.164;2022-09-09T03:42:20;16.17;;;9.63;;
10201;SDS011;5143;42.584;23.164;2022-09-09T03:44:47;17.63;;;11.07;;
10201;SDS011;5143;42.584;23.164;2022-09-09T03:47:15;16.83;;;11.47;;
10201;SDS011;5143;42.584;23.164;2022-09-09T03:49:43;12.83;;;11.27;;
10201;SDS011;5143;42.584;23.164;2022-09-09T03:52:10;21.43;;;12.77;;
10201;SDS011;5143;42.584;23.164;2022-09-09T03:54:38;12.40;;;11.07;;
10201;SDS011;5143;42.584;23.164;2022-09-09T03:57:06;18.20;;;11.57;;
10201;SDS011;5143;42.584;23.164;2022-09-09T03:59:33;18.77;;;9.93;;
10201;SDS011;5143;42.584;23.164;2022-09-09T04:02:00;15.47;;;9.60;;
10201;SDS011;5143;42.584;23.164;2022-09-09T04:04:27;15.03;;;10.20;;
10201;SDS011;5143;42.584;23.164;2022-09-09T04:06:54;12.43;;;10.03;;
10201;SDS011;5143;42.584;23.164;2022-09-09T04:09:21;16.33;;;9.63;;
10201;SDS011;5143;42.584;23.164;2022-09-09T04:11:49;14.77;;;9.70;;
10201;SDS011;5143;42.584;23.164;2022-09-09T04:14:16;12.80;;;10.23;;
10201;SDS011;5143;42.584;23.164;2022-09-09T04:16:43;12.93;;;9.90;;
10201;SDS011;5143;42.584;23.164;2022-09-09T04:19:10;12.70;;;9.37;;
10201;SDS011;5143;42.584;23.164;2022-09-09T04:21:38;19.23;;;10.50;;
10201;SDS011;5143;42.584;23.164;2022-09-09T04:24:06;14.13;;;9.33;;
10201;SDS011;5143;42.584;23.164;2022-09-09T04:26:34;15.87;;;10.63;;
10201;SDS011;5143;42.584;23.164;2022-09-09T04:29:03;16.20;;;10.77;;
10201;SDS011;5143;42.584;23.164;2022-09-09T04:31:32;17.20;;;10.10;;
10201;SDS011;5143;42.584;23.164;2022-09-09T04:34:00;21.53;;;10.70;;
10201;SDS011;5143;42.584;23.164;2022-09-09T04:36:30;13.67;;;9.57;;
10201;SDS011;5143;42.584;23.164;2022-09-09T04:38:57;11.97;;;9.73;;
10201;SDS011;5143;42.584;23.164;2022-09-09T04:41:24;16.80;;;10.70;;
10201;SDS011;5143;42.584;23.164;2022-09-09T04:43:51;18.27;;;9.10;;
10201;SDS011;5143;42.584;23.164;2022-09-09T04:46:20;12.57;;;9.13;;
10201;SDS011;5143;42.584;23.164;2022-09-09T04:48:48;16.93;;;9.60;;
10201;SDS011;5143;42.584;23.164;2022-09-09T04:51:14;19.33;;;9.60;;
10201;SDS011;5143;42.584;23.164;2022-09-09T04:53:42;14.43;;;9.17;;
10201;SDS011;5143;42.584;23.164;2022-09-09T04:56:09;14.70;;;10.50;;
10201;SDS011;5143;42.584;23.164;2022-09-09T04:58:37;17.03;;;8.50;;
10201;SDS011;5143;42.584;23.164;2022-09-09T05:01:07;16.10;;;8.70;;
10201;SDS011;5143;42.584;23.164;2022-09-09T05:03:36;18.37;;;10.47;;
10201;SDS011;5143;42.584;23.164;2022-09-09T05:06:04;19.07;;;10.07;;
10201;SDS011;5143;42.584;23.164;2022-09-09T05:08:33;16.73;;;10.33;;
10201;SDS011;5143;42.584;23.164;2022-09-09T05:11:00;18.60;;;8.80;;
10201;SDS011;5143;42.584;23.164;2022-09-09T05:13:28;14.17;;;8.93;;
10201;SDS011;5143;42.584;23.164;2022-09-09T05:15:56;11.23;;;7.10;;
10201;SDS011;5143;42.584;23.164;2022-09-09T05:18:23;12.13;;;6.57;;
10201;SDS011;5143;42.584;23.164;2022-09-09T05:20:51;13.93;;;5.57;;
10201;SDS011;5143;42.584;23.164;2022-09-09T05:23:18;9.43;;;5.40;;
10201;SDS011;5143;42.584;23.164;2022-09-09T05:25:54;13.37;;;5.40;;
10201;SDS011;5143;42.584;23.164;2022-09-09T05:28:23;11.37;;;5.47;;
10201;SDS011;5143;42.584;23.164;2022-09-09T05:30:55;10.63;;;5.30;;
10201;SDS011;5143;42.584;23.164;2022-09-09T05:33:26;17.17;;;5.20;;
10201;SDS011;5143;42.584;23.164;2022-09-09T05:35:58;6.53;;;4.07;;
10201;SDS011;5143;42.584;23.164;2022-09-09T05:38:26;8.82;;;4.90;;
10201;SDS011;5143;42.584;23.164;2022-09-09T05:40:54;8.35;;;3.78;;
10201;SDS011;5143;42.584;23.164;2022-09-09T05:43:21;10.48;;;4.60;;
10201;SDS011;5143;42.584;23.164;2022-09-09T05:45:58;17.08;;;4.43;;
10201;SDS011;5143;42.584;23.164;2022-09-09T05:48:27;7.22;;;3.58;;
10201;SDS011;5143;42.584;23.164;2022-09-09T05:50:54;7.35;;;3.63;;
10201;SDS011;5143;42.584;23.164;2022-09-09T05:53:23;27.05;;;4.45;;
10201;SDS011;5143;42.584;23.164;2022-09-09T05:55:50;19.15;;;4.03;;
10201;SDS011;5143;42.584;23.164;2022-09-09T05:58:17;31.67;;;5.38;;
10201;SDS011;5143;42.584;23.164;2022-09-09T06:00:44;9.85;;;3.53;;
10201;SDS011;5143;42.584;23.164;2022-09-09T06:03:11;5.38;;;3.00;;
10201;SDS011;5143;42.584;23.164;2022-09-09T06:05:38;5.90;;;3.35;;
10201;SDS011;5143;42.584;23.164;2022-09-09T06:08:05;5.97;;;3.40;;
10201;SDS011;5143;42.584;23.164;2022-09-09T06:10:34;5.30;;;3.20;;
10201;SDS011;5143;42.584;23.164;2022-09-09T06:13:01;7.68;;;3.28;;
10201;SDS011;5143;42.584;23.164;2022-09-09T06:15:28;6.05;;;3.30;;
10201;SDS011;5143;42.584;23.164;2022-09-09T06:17:55;4.85;;;3.28;;
10201;SDS011;5143;42.584;23.164;2022-09-09T06:20:22;5.25;;;3.22;;
10201;SDS011;5143;42.584;23.164;2022-09-09T06:22:49;6.57;;;3.30;;
10201;SDS011;5143;42.584;23.164;2022-09-09T06:25:16;5.20;;;2.80;;
10201;SDS011;5143;42.584;23.164;2022-09-09T06:27:47;8.32;;;3.22;;
10201;SDS011;5143;42.584;23.164;2022-09-09T06:30:14;5.25;;;3.00;;
10201;SDS011;5143;42.584;23.164;2022-09-09T06:32:42;4.22;;;2.80;;
10201;SDS011;5143;42.584;23.164;2022-09-09T06:35:09;10.52;;;3.65;;
10201;SDS011;5143;42.584;23.164;2022-09-09T06:37:36;8.80;;;3.22;;
10201;SDS011;5143;42.584;23.164;2022-09-09T06:40:03;7.82;;;3.20;;
10201;SDS011;5143;42.584;23.164;2022-09-09T06:42:30;6.47;;;3.10;;
10201;SDS011;5143;42.584;23.164;2022-09-09T06:44:59;6.80;;;3.00;;
10201;SDS011;5143;42.584;23.164;2022-09-09T06:47:25;3.72;;;2.72;;
10201;SDS011;5143;42.584;23.164;2022-09-09T06:49:54;6.63;;;3.03;;
10201;SDS011;5143;42.584;23.164;2022-09-09T06:52:21;12.48;;;3.22;;
10201;SDS011;5143;42.584;23.164;2022-09-09T06:54:49;10.30;;;3.00;;
10201;SDS011;5143;42.584;23.164;2022-09-09T06:57:16;4.70;;;2.45;;
10201;SDS011;5143;42.584;23.164;2022-09-09T06:59:43;6.88;;;2.85;;
10201;SDS011;5143;42.584;23.164;2022-09-09T07:02:11;6.13;;;2.60;;
10201;SDS011;5143;42.584;23.164;2022-09-09T07:04:38;8.05;;;3.45;;
10201;SDS011;5143;42.584;23.164;2022-09-09T07:07:05;5.53;;;2.95;;
10201;SDS011;5143;42.584;23.164;2022-09-09T07:09:33;9.30;;;3.22;;
10201;SDS011;5143;42.584;23.164;2022-09-09T07:12:00;13.65;;;3.08;;
10201;SDS011;5143;42.584;23.164;2022-09-09T07:14:27;7.15;;;3.28;;
10201;SDS011;5143;42.584;23.164;2022-09-09T07:16:54;7.13;;;3.15;;
10201;SDS011;5143;42.584;23.164;2022-09-09T07:19:22;12.93;;;3.97;;
10201;SDS011;5143;42.584;23.164;2022-09-09T07:21:50;26.25;;;4.80;;
10201;SDS011;5143;42.584;23.164;2022-09-09T07:24:17;7.20;;;3.70;;
10201;SDS011;5143;42.584;23.164;2022-09-09T07:26:44;8.32;;;3.33;;
10201;SDS011;5143;42.584;23.164;2022-09-09T07:29:11;14.85;;;3.75;;
10201;SDS011;5143;42.584;23.164;2022-09-09T07:31:39;13.38;;;3.53;;
10201;SDS011;5143;42.584;23.164;2022-09-09T07:34:06;17.48;;;4.05;;
10201;SDS011;5143;42.584;23.164;2022-09-09T07:36:36;9.18;;;3.50;;
10201;SDS011;5143;42.584;23.164;2022-09-09T07:39:05;13.07;;;3.83;;
10201;SDS011;5143;42.584;23.164;2022-09-09T07:41:34;9.52;;;3.03;;
10201;SDS011;5143;42.584;23.164;2022-09-09T07:44:06;7.10;;;3.00;;
10201;SDS011;5143;42.584;23.164;2022-09-09T07:46:37;8.23;;;3.30;;
10201;SDS011;5143;42.584;23.164;2022-09-09T07:49:06;15.52;;;3.70;;
10201;SDS011;5143;42.584;23.164;2022-09-09T07:51:36;11.45;;;3.50;;
10201;SDS011;5143;42.584;23.164;2022-09-09T07:54:04;9.23;;;3.65;;
10201;SDS011;5143;42.584;23.164;2022-09-09T07:56:32;6.78;;;3.38;;
10201;SDS011;5143;42.584;23.164;2022-09-09T07:59:00;72.32;;;7.43;;
10201;SDS011;5143;42.584;23.164;2022-09-09T08:01:30;5.18;;;3.75;;
10201;SDS011;5143;42.584;23.164;2022-09-09T08:03:59;5.30;;;3.23;;
10201;SDS011;5143;42.584;23.164;2022-09-09T08:06:28;8.17;;;3.60;;
10201;SDS011;5143;42.584;23.164;2022-09-09T08:08:58;8.03;;;3.60;;
10201;SDS011;5143;42.584;23.164;2022-09-09T08:11:26;6.80;;;3.97;;
10201;SDS011;5143;42.584;23.164;2022-09-09T08:13:54;5.13;;;3.30;;
10201;SDS011;5143;42.584;23.164;2022-09-09T08:16:22;11.67;;;3.73;;
10201;SDS011;5143;42.584;23.164;2022-09-09T08:18:51;6.03;;;3.63;;
10201;SDS011;5143;42.584;23.164;2022-09-09T08:21:20;6.43;;;3.73;;
10201;SDS011;5143;42.584;23.164;2022-09-09T08:23:49;6.53;;;3.50;;
10201;SDS011;5143;42.584;23.164;2022-09-09T08:26:19;7.50;;;3.80;;
10201;SDS011;5143;42.584;23.164;2022-09-09T08:28:48;8.43;;;3.67;;
10201;SDS011;5143;42.584;23.164;2022-09-09T08:31:17;5.60;;;3.43;;
10201;SDS011;5143;42.584;23.164;2022-09-09T08:33:46;6.20;;;3.63;;
10201;SDS011;5143;42.584;23.164;2022-09-09T08:36:14;7.70;;;3.67;;
10201;SDS011;5143;42.584;23.164;2022-09-09T08:38:43;6.77;;;3.80;;
10201;SDS011;5143;42.584;23.164;2022-09-09T08:41:22;8.40;;;3.67;;
10201;SDS011;5143;42.584;23.164;2022-09-09T08:44:20;5.97;;;3.50;;
10201;SDS011;5143;42.584;23.164;2022-09-09T08:46:59;12.00;;;4.00;;
10201;SDS011;5143;42.584;23.164;2022-09-09T08:49:47;4.67;;;3.50;;
10201;SDS011;5143;42.584;23.164;2022-09-09T08:52:27;7.93;;;3.40;;
10201;SDS011;5143;42.584;23.164;2022-09-09T08:54:56;6.83;;;3.47;;
10201;SDS011;5143;42.584;23.164;2022-09-09T08:57:32;5.53;;;3.60;;
10201;SDS011;5143;42.584;23.164;2022-09-09T09:00:00;7.03;;;3.50;;
10201;SDS011;5143;42.584;23.164;2022-09-09T09:02:28;8.20;;;4.50;;
10201;SDS011;5143;42.584;23.164;2022-09-09T09:05:07;7.80;;;3.73;;
10201;SDS011;5143;42.584;23.164;2022-09-09T09:07:45;9.37;;;4.07;;
10201;SDS011;5143;42.584;23.164;2022-09-09T09:10:25;14.17;;;4.43;;
10201;SDS011;5143;42.584;23.164;2022-09-09T09:13:06;11.67;;;4.77;;
10201;SDS011;5143;42.584;23.164;2022-09-09T09:15:39;7.87;;;4.30;;
10201;SDS011;5143;42.584;23.164;2022-09-09T09:18:08;10.00;;;3.90;;
10201;SDS011;5143;42.584;23.164;2022-09-09T09:20:40;18.60;;;4.30;;
10201;SDS011;5143;42.584;23.164;2022-09-09T09:23:16;8.43;;;3.70;;
10201;SDS011;5143;42.584;23.164;2022-09-09T09:25:48;7.50;;;3.83;;
10201;SDS011;5143;42.584;23.164;2022-09-09T09:28:20;13.67;;;3.80;;
10201;SDS011;5143;42.584;23.164;2022-09-09T09:30:52;8.47;;;4.00;;
10201;SDS011;5143;42.584;23.164;2022-09-09T09:33:23;6.60;;;4.00;;
10201;SDS011;5143;42.584;23.164;2022-09-09T09:35:54;6.63;;;3.53;;
10201;SDS011;5143;42.584;23.164;2022-09-09T09:38:21;7.83;;;4.83;;
10201;SDS011;5143;42.584;23.164;2022-09-09T09:40:50;7.53;;;4.13;;
10201;SDS011;5143;42.584;23.164;2022-09-09T09:43:25;12.83;;;4.43;;
10201;SDS011;5143;42.584;23.164;2022-09-09T09:45:53;11.07;;;4.20;;
10201;SDS011;5143;42.584;23.164;2022-09-09T09:48:23;5.67;;;3.80;;
10201;SDS011;5143;42.584;23.164;2022-09-09T09:50:51;7.73;;;4.13;;
10201;SDS011;5143;42.584;23.164;2022-09-09T09:53:21;6.73;;;3.87;;
10201;SDS011;5143;42.584;23.164;2022-09-09T09:55:53;10.20;;;4.50;;
10201;SDS011;5143;42.584;23.164;2022-09-09T09:58:22;10.20;;;4.60;;
10201;SDS011;5143;42.584;23.164;2022-09-09T10:00:52;12.13;;;4.20;;
10201;SDS011;5143;42.584;23.164;2022-09-09T10:03:24;6.70;;;4.27;;
10201;SDS011;5143;42.584;23.164;2022-09-09T10:05:53;12.37;;;4.73;;
10201;SDS011;5143;42.584;23.164;2022-09-09T10:08:21;49.50;;;8.03;;
10201;SDS011;5143;42.584;23.164;2022-09-09T10:10:54;14.40;;;4.73;;
10201;SDS011;5143;42.584;23.164;2022-09-09T10:13:39;12.43;;;4.40;;
10201;SDS011;5143;42.584;23.164;2022-09-09T10:16:20;15.57;;;5.43;;
10201;SDS011;5143;42.584;23.164;2022-09-09T10:18:58;16.03;;;5.80;;
10201;SDS011;5143;42.584;23.164;2022-09-09T10:21:40;18.03;;;5.10;;
10201;SDS011;5143;42.584;23.164;2022-09-09T10:24:32;7.80;;;4.63;;
10201;SDS011;5143;42.584;23.164;2022-09-09T10:27:11;9.60;;;4.97;;
10201;SDS011;5143;42.584;23.164;2022-09-09T10:29:50;9.90;;;4.80;;
10201;SDS011;5143;42.584;23.164;2022-09-09T10:32:35;13.83;;;6.37;;
10201;SDS011;5143;42.584;23.164;2022-09-09T10:35:09;18.23;;;4.97;;
10201;SDS011;5143;42.584;23.164;2022-09-09T10:37:45;13.60;;;5.13;;
10201;SDS011;5143;42.584;23.164;2022-09-09T10:40:23;20.93;;;5.33;;
10201;SDS011;5143;42.584;23.164;2022-09-09T10:42:59;14.33;;;5.27;;
10201;SDS011;5143;42.584;23.164;2022-09-09T10:45:37;13.90;;;5.73;;
10201;SDS011;5143;42.584;23.164;2022-09-09T10:51:11;12.37;;;5.43;;
10201;SDS011;5143;42.584;23.164;2022-09-09T10:53:49;14.90;;;5.87;;
10201;SDS011;5143;42.584;23.164;2022-09-09T10:56:25;18.17;;;5.50;;
10201;SDS011;5143;42.584;23.164;2022-09-09T10:58:56;15.53;;;5.30;;
10201;SDS011;5143;42.584;23.164;2022-09-09T11:01:29;20.53;;;6.13;;
10201;SDS011;5143;42.584;23.164;2022-09-09T11:04:00;18.57;;;5.67;;
10201;SDS011;5143;42.584;23.164;2022-09-09T11:06:31;14.70;;;5.30;;
10201;SDS011;5143;42.584;23.164;2022-09-09T11:09:03;12.73;;;5.50;;
10201;SDS011;5143;42.584;23.164;2022-09-09T11:11:33;7.97;;;5.50;;
10201;SDS011;5143;42.584;23.164;2022-09-09T11:14:07;11.07;;;5.30;;
10201;SDS011;5143;42.584;23.164;2022-09-09T11:16:42;12.70;;;5.53;;
10201;SDS011;5143;42.584;23.164;2022-09-09T11:19:17;17.57;;;5.97;;
10201;SDS011;5143;42.584;23.164;2022-09-09T11:21:51;35.47;;;7.33;;
10201;SDS011;5143;42.584;23.164;2022-09-09T11:24:20;11.97;;;5.67;;
10201;SDS011;5143;42.584;23.164;2022-09-09T11:26:54;13.93;;;5.97;;
10201;SDS011;5143;42.584;23.164;2022-09-09T11:29:31;14.63;;;6.37;;
10201;SDS011;5143;42.584;23.164;2022-09-09T11:32:18;14.87;;;5.70;;
10201;SDS011;5143;42.584;23.164;2022-09-09T11:35:00;13.00;;;5.00;;
10201;SDS011;5143;42.584;23.164;2022-09-09T11:37:56;18.73;;;6.33;;
10201;SDS011;5143;42.584;23.164;2022-09-09T11:40:38;16.73;;;5.17;;
10201;SDS011;5143;42.584;23.164;2022-09-09T11:43:08;10.87;;;5.20;;
10201;SDS011;5143;42.584;23.164;2022-09-09T11:45:38;10.47;;;5.37;;
10201;SDS011;5143;42.584;23.164;2022-09-09T11:48:22;17.03;;;5.50;;
10201;SDS011;5143;42.584;23.164;2022-09-09T11:50:57;12.63;;;5.03;;
10201;SDS011;5143;42.584;23.164;2022-09-09T11:53:26;17.67;;;5.10;;
10201;SDS011;5143;42.584;23.164;2022-09-09T11:56:02;9.43;;;5.03;;
10201;SDS011;5143;42.584;23.164;2022-09-09T11:58:34;10.73;;;4.90;;
10201;SDS011;5143;42.584;23.164;2022-09-09T12:04:21;8.70;;;4.07;;
10201;SDS011;5143;42.584;23.164;2022-09-09T12:06:56;10.47;;;4.53;;
10201;SDS011;5143;42.584;23.164;2022-09-09T12:09:29;7.13;;;4.10;;
10201;SDS011;5143;42.584;23.164;2022-09-09T12:12:06;10.70;;;4.47;;
10201;SDS011;5143;42.584;23.164;2022-09-09T12:14:54;11.07;;;4.67;;
10201;SDS011;5143;42.584;23.164;2022-09-09T12:17:26;10.40;;;4.53;;
10201;SDS011;5143;42.584;23.164;2022-09-09T12:20:02;10.37;;;4.27;;
10201;SDS011;5143;42.584;23.164;2022-09-09T12:22:41;11.60;;;4.20;;
10201;SDS011;5143;42.584;23.164;2022-09-09T12:25:18;7.73;;;3.87;;
10201;SDS011;5143;42.584;23.164;2022-09-09T12:27:54;12.77;;;4.23;;
10201;SDS011;5143;42.584;23.164;2022-09-09T12:30:31;9.20;;;4.60;;
10201;SDS011;5143;42.584;23.164;2022-09-09T12:33:08;13.13;;;4.63;;
10201;SDS011;5143;42.584;23.164;2022-09-09T12:35:39;12.63;;;4.67;;
10201;SDS011;5143;42.584;23.164;2022-09-09T12:38:10;8.33;;;4.87;;
10201;SDS011;5143;42.584;23.164;2022-09-09T12:40:53;6.83;;;3.80;;
10201;SDS011;5143;42.584;23.164;2022-09-09T12:43:22;11.27;;;4.37;;
10201;SDS011;5143;42.584;23.164;2022-09-09T12:45:49;13.80;;;4.20;;
10201;SDS011;5143;42.584;23.164;2022-09-09T12:48:22;15.17;;;4.27;;
10201;SDS011;5143;42.584;23.164;2022-09-09T12:50:56;13.50;;;4.43;;
10201;SDS011;5143;42.584;23.164;2022-09-09T12:53:25;6.83;;;4.03;;
10201;SDS011;5143;42.584;23.164;2022-09-09T12:55:56;7.27;;;4.10;;
10201;SDS011;5143;42.584;23.164;2022-09-09T12:58:24;9.83;;;4.40;;
10201;SDS011;5143;42.584;23.164;2022-09-09T13:00:57;13.80;;;4.70;;
10201;SDS011;5143;42.584;23.164;2022-09-09T13:03:25;14.30;;;4.43;;
10201;SDS011;5143;42.584;23.164;2022-09-09T13:05:53;8.53;;;4.00;;
10201;SDS011;5143;42.584;23.164;2022-09-09T13:08:36;6.53;;;4.20;;
10201;SDS011;5143;42.584;23.164;2022-09-09T13:11:03;8.33;;;4.87;;
10201;SDS011;5143;42.584;23.164;2022-09-09T13:13:35;9.10;;;4.63;;
10201;SDS011;5143;42.584;23.164;2022-09-09T13:16:03;12.50;;;4.87;;
10201;SDS011;5143;42.584;23.164;2022-09-09T13:18:33;13.43;;;4.13;;
10201;SDS011;5143;42.584;23.164;2022-09-09T13:21:03;15.47;;;4.50;;
10201;SDS011;5143;42.584;23.164;2022-09-09T13:23:31;10.83;;;4.67;;
10201;SDS011;5143;42.584;23.164;2022-09-09T13:26:00;9.97;;;4.87;;
10201;SDS011;5143;42.584;23.164;2022-09-09T13:28:29;10.73;;;4.57;;
10201;SDS011;5143;42.584;23.164;2022-09-09T13:30:58;12.60;;;4.60;;
10201;SDS011;5143;42.584;23.164;2022-09-09T13:33:30;11.17;;;4.77;;
10201;SDS011;5143;42.584;23.164;2022-09-09T13:35:58;8.87;;;4.80;;
10201;SDS011;5143;42.584;23.164;2022-09-09T13:38:30;10.10;;;4.33;;
10201;SDS011;5143;42.584;23.164;2022-09-09T13:41:00;14.93;;;4.70;;
10201;SDS011;5143;42.584;23.164;2022-09-09T13:43:29;9.40;;;4.27;;
10201;SDS011;5143;42.584;23.164;2022-09-09T13:45:58;6.43;;;4.00;;
10201;SDS011;5143;42.584;23.164;2022-09-09T13:48:27;9.90;;;4.73;;
10201;SDS011;5143;42.584;23.164;2022-09-09T13:50:58;6.90;;;4.07;;
10201;SDS011;5143;42.584;23.164;2022-09-09T13:53:29;5.87;;;4.37;;
10201;SDS011;5143;42.584;23.164;2022-09-09T13:55:56;10.87;;;4.67;;
10201;SDS011;5143;42.584;23.164;2022-09-09T13:58:24;6.23;;;4.33;;
10201;SDS011;5143;42.584;23.164;2022-09-09T14:00:51;12.13;;;4.57;;
10201;SDS011;5143;42.584;23.164;2022-09-09T14:03:19;7.10;;;4.30;;
10201;SDS011;5143;42.584;23.164;2022-09-09T14:05:46;7.97;;;4.03;;
10201;SDS011;5143;42.584;23.164;2022-09-09T14:08:20;10.10;;;3.77;;
10201;SDS011;5143;42.584;23.164;2022-09-09T14:10:53;8.53;;;4.03;;
10201;SDS011;5143;42.584;23.164;2022-09-09T14:13:21;7.67;;;4.10;;
10201;SDS011;5143;42.584;23.164;2022-09-09T14:15:48;5.60;;;4.10;;
10201;SDS011;5143;42.584;23.164;2022-09-09T14:18:15;7.23;;;4.10;;
10201;SDS011;5143;42.584;23.164;2022-09-09T14:20:43;10.20;;;4.37;;
10201;SDS011;5143;42.584;23.164;2022-09-09T14:23:10;12.37;;;4.40;;
10201;SDS011;5143;42.584;23.164;2022-09-09T14:25:41;7.83;;;4.40;;
10201;SDS011;5143;42.584;23.164;2022-09-09T14:28:11;10.80;;;4.80;;
10201;SDS011;5143;42.584;23.164;2022-09-09T14:30:39;11.93;;;4.27;;
10201;SDS011;5143;42.584;23.164;2022-09-09T14:33:07;6.43;;;4.33;;
10201;SDS011;5143;42.584;23.164;2022-09-09T14:35:36;12.40;;;4.73;;
10201;SDS011;5143;42.584;23.164;2022-09-09T14:38:04;11.63;;;4.00;;
10201;SDS011;5143;42.584;23.164;2022-09-09T14:40:31;10.37;;;4.23;;
10201;SDS011;5143;42.584;23.164;2022-09-09T14:42:58;9.60;;;4.33;;
10201;SDS011;5143;42.584;23.164;2022-09-09T14:45:26;9.70;;;4.10;;
10201;SDS011;5143;42.584;23.164;2022-09-09T14:47:53;12.17;;;4.40;;
10201;SDS011;5143;42.584;23.164;2022-09-09T14:50:20;9.27;;;4.20;;
10201;SDS011;5143;42.584;23.164;2022-09-09T14:52:48;11.40;;;4.30;;
10201;SDS011;5143;42.584;23.164;2022-09-09T14:55:16;10.23;;;4.63;;
10201;SDS011;5143;42.584;23.164;2022-09-09T14:57:43;9.10;;;4.53;;
10201;SDS011;5143;42.584;23.164;2022-09-09T15:00:10;10.53;;;4.37;;
10201;SDS011;5143;42.584;23.164;2022-09-09T15:02:39;9.50;;;4.50;;
10201;SDS011;5143;42.584;23.164;2022-09-09T15:05:06;6.90;;;4.37;;
10201;SDS011;5143;42.584;23.164;2022-09-09T15:07:33;14.17;;;4.43;;
10201;SDS011;5143;42.584;23.164;2022-09-09T15:10:01;9.93;;;4.43;;
10201;SDS011;5143;42.584;23.164;2022-09-09T15:12:28;12.40;;;4.50;;